Main page
METAR-TAF:

METAR-TAF

Airports :

Orange, France

Orange-Caritat Air Base

latitude: 44-08N, longitude: 004-50E, elevation: 60 m

Current weather observation

The report was made 10 minutes ago, at 02:00 UTC
Wind 2 kt from the East/Northeast
Temperature 13°C
Humidity 77%
Pressure 1018 hPa
Visibility 10 km or more
no clouds below 1500 m and no cumulonimbus

METAR: LFMO 290200Z AUTO 07002KT CAVOK 13/09 Q1018 NOSIG

Time: 04:10 (02:10 UTC)

Forecast

The report was made 6 hours and 10 minutes ago, at 20:00 UTC
Forecast valid from 28 at 21 UTC to 29 at 21 UTC
Wind 2 kt from variable directions
Visibility 10 km or more
no clouds below 1500 m and no cumulonimbus
Becoming
from 29 at 12 UTC to 29 at 14 UTC
Wind 10 kt from the South/Southwest
Becoming
from 29 at 19 UTC to 29 at 21 UTC
Wind 2 kt from variable directions

TAF: LFMO 282000Z 2821/2921 VRB02KT CAVOK BECMG 2912/2914 20010KT BECMG 2919/2921 VRB02KT

Weather observations and forecasts of more than 4000 airports (METAR and TAF reports).

The available stations are represented by yellow and red dots on the map.

Hover mouse over dot to see the name of the station.

Then click to see weather observations and forecasts.

To change the map : click on the green buttons with a black cross to zoom in, on the green button with a dash to zoom out, or on the green arrows for adjacent maps.


METAR-TAF: